sensor_id;sensor_type;location;lat;lon;timestamp;temperature;humidity
19039;DHT22;9652;49.014;12.052;2022-09-09T00:02:01;18.00;68.90
19039;DHT22;9652;49.014;12.052;2022-09-09T00:04:36;18.00;69.30
19039;DHT22;9652;49.014;12.052;2022-09-09T00:07:10;18.00;69.10
19039;DHT22;9652;49.014;12.052;2022-09-09T00:09:50;18.00;69.30
19039;DHT22;9652;49.014;12.052;2022-09-09T00:12:33;17.90;69.20
19039;DHT22;9652;49.014;12.052;2022-09-09T00:15:11;17.90;69.40
19039;DHT22;9652;49.014;12.052;2022-09-09T00:17:45;17.90;69.40
19039;DHT22;9652;49.014;12.052;2022-09-09T00:20:24;17.90;69.40
19039;DHT22;9652;49.014;12.052;2022-09-09T00:23:09;17.80;69.60
19039;DHT22;9652;49.014;12.052;2022-09-09T00:25:44;17.80;69.60
19039;DHT22;9652;49.014;12.052;2022-09-09T00:28:18;17.80;69.70
19039;DHT22;9652;49.014;12.052;2022-09-09T00:30:49;17.80;69.60
19039;DHT22;9652;49.014;12.052;2022-09-09T00:33:19;17.70;69.30
19039;DHT22;9652;49.014;12.052;2022-09-09T00:35:53;17.70;69.40
19039;DHT22;9652;49.014;12.052;2022-09-09T00:38:26;17.70;69.60
19039;DHT22;9652;49.014;12.052;2022-09-09T00:41:02;17.70;69.70
19039;DHT22;9652;49.014;12.052;2022-09-09T00:43:37;17.60;69.80
19039;DHT22;9652;49.014;12.052;2022-09-09T00:46:17;17.60;69.90
19039;DHT22;9652;49.014;12.052;2022-09-09T00:49:04;17.60;70.50
19039;DHT22;9652;49.014;12.052;2022-09-09T00:51:50;17.60;70.70
19039;DHT22;9652;49.014;12.052;2022-09-09T00:54:34;17.70;71.20
19039;DHT22;9652;49.014;12.052;2022-09-09T00:57:23;17.80;71.80
19039;DHT22;9652;49.014;12.052;2022-09-09T01:02:56;17.90;72.80
19039;DHT22;9652;49.014;12.052;2022-09-09T01:05:37;17.90;73.00
19039;DHT22;9652;49.014;12.052;2022-09-09T01:08:35;18.00;73.30
19039;DHT22;9652;49.014;12.052;2022-09-09T01:11:26;18.20;74.00
19039;DHT22;9652;49.014;12.052;2022-09-09T01:14:09;18.30;73.30
19039;DHT22;9652;49.014;12.052;2022-09-09T01:16:44;18.40;73.50
19039;DHT22;9652;49.014;12.052;2022-09-09T01:19:22;18.40;73.20
19039;DHT22;9652;49.014;12.052;2022-09-09T01:22:06;18.50;73.50
19039;DHT22;9652;49.014;12.052;2022-09-09T01:25:05;18.60;73.40
19039;DHT22;9652;49.014;12.052;2022-09-09T01:28:04;18.60;73.50
19039;DHT22;9652;49.014;12.052;2022-09-09T01:30:39;18.70;73.20
19039;DHT22;9652;49.014;12.052;2022-09-09T01:33:13;18.80;72.90
19039;DHT22;9652;49.014;12.052;2022-09-09T01:35:48;18.80;72.90
19039;DHT22;9652;49.014;12.052;2022-09-09T01:38:22;18.90;72.90
19039;DHT22;9652;49.014;12.052;2022-09-09T01:40:53;18.90;72.70
19039;DHT22;9652;49.014;12.052;2022-09-09T01:43:26;18.90;72.60
19039;DHT22;9652;49.014;12.052;2022-09-09T01:45:59;19.00;72.60
19039;DHT22;9652;49.014;12.052;2022-09-09T01:48:28;19.00;72.60
19039;DHT22;9652;49.014;12.052;2022-09-09T01:51:02;19.00;72.30
19039;DHT22;9652;49.014;12.052;2022-09-09T01:53:29;19.10;72.20
19039;DHT22;9652;49.014;12.052;2022-09-09T01:56:04;19.10;72.20
19039;DHT22;9652;49.014;12.052;2022-09-09T01:58:52;19.10;72.40
19039;DHT22;9652;49.014;12.052;2022-09-09T02:01:36;19.10;72.40
19039;DHT22;9652;49.014;12.052;2022-09-09T02:04:22;19.10;72.30
19039;DHT22;9652;49.014;12.052;2022-09-09T02:07:18;19.20;72.30
19039;DHT22;9652;49.014;12.052;2022-09-09T02:09:58;19.20;72.30
19039;DHT22;9652;49.014;12.052;2022-09-09T02:12:31;19.10;72.20
19039;DHT22;9652;49.014;12.052;2022-09-09T02:15:05;19.20;72.10
19039;DHT22;9652;49.014;12.052;2022-09-09T02:17:46;19.10;72.10
19039;DHT22;9652;49.014;12.052;2022-09-09T02:20:19;19.20;72.00
19039;DHT22;9652;49.014;12.052;2022-09-09T02:22:57;19.20;72.10
19039;DHT22;9652;49.014;12.052;2022-09-09T02:25:28;19.20;72.00
19039;DHT22;9652;49.014;12.052;2022-09-09T02:28:05;19.20;72.00
19039;DHT22;9652;49.014;12.052;2022-09-09T02:30:37;19.20;72.00
19039;DHT22;9652;49.014;12.052;2022-09-09T02:33:08;19.30;72.10
19039;DHT22;9652;49.014;12.052;2022-09-09T02:35:44;19.20;71.90
19039;DHT22;9652;49.014;12.052;2022-09-09T02:38:15;19.20;71.80
19039;DHT22;9652;49.014;12.052;2022-09-09T02:40:54;19.20;71.60
19039;DHT22;9652;49.014;12.052;2022-09-09T02:43:22;19.20;71.60
19039;DHT22;9652;49.014;12.052;2022-09-09T02:45:56;19.20;71.60
19039;DHT22;9652;49.014;12.052;2022-09-09T02:48:51;19.20;71.70
19039;DHT22;9652;49.014;12.052;2022-09-09T02:51:37;19.20;71.50
19039;DHT22;9652;49.014;12.052;2022-09-09T02:54:19;19.20;72.20
19039;DHT22;9652;49.014;12.052;2022-09-09T02:56:54;19.20;71.20
19039;DHT22;9652;49.014;12.052;2022-09-09T02:59:29;19.20;71.90
19039;DHT22;9652;49.014;12.052;2022-09-09T03:01:58;19.20;71.20
19039;DHT22;9652;49.014;12.052;2022-09-09T03:04:27;19.10;71.20
19039;DHT22;9652;49.014;12.052;2022-09-09T03:06:56;19.20;71.20
19039;DHT22;9652;49.014;12.052;2022-09-09T03:09:24;19.10;71.20
19039;DHT22;9652;49.014;12.052;2022-09-09T03:11:53;19.10;71.20
19039;DHT22;9652;49.014;12.052;2022-09-09T03:14:21;19.10;71.20
19039;DHT22;9652;49.014;12.052;2022-09-09T03:16:51;19.10;71.30
19039;DHT22;9652;49.014;12.052;2022-09-09T03:19:20;19.10;71.20
19039;DHT22;9652;49.014;12.052;2022-09-09T03:21:48;19.10;71.20
19039;DHT22;9652;49.014;12.052;2022-09-09T03:24:15;19.10;71.10
19039;DHT22;9652;49.014;12.052;2022-09-09T03:26:43;19.10;71.10
19039;DHT22;9652;49.014;12.052;2022-09-09T03:29:13;19.10;71.10
19039;DHT22;9652;49.014;12.052;2022-09-09T03:31:41;19.10;70.90
19039;DHT22;9652;49.014;12.052;2022-09-09T03:34:09;19.10;70.90
19039;DHT22;9652;49.014;12.052;2022-09-09T03:36:38;19.10;70.90
19039;DHT22;9652;49.014;12.052;2022-09-09T03:39:07;19.10;70.70
19039;DHT22;9652;49.014;12.052;2022-09-09T03:41:34;19.00;70.70
19039;DHT22;9652;49.014;12.052;2022-09-09T03:44:03;19.00;70.70
19039;DHT22;9652;49.014;12.052;2022-09-09T03:46:36;19.00;70.80
19039;DHT22;9652;49.014;12.052;2022-09-09T03:49:03;19.00;70.80
19039;DHT22;9652;49.014;12.052;2022-09-09T03:51:31;19.00;70.80
19039;DHT22;9652;49.014;12.052;2022-09-09T03:54:04;18.90;70.70
19039;DHT22;9652;49.014;12.052;2022-09-09T03:56:34;18.90;70.50
19039;DHT22;9652;49.014;12.052;2022-09-09T03:59:01;18.90;70.60
19039;DHT22;9652;49.014;12.052;2022-09-09T04:01:29;18.90;70.60
19039;DHT22;9652;49.014;12.052;2022-09-09T04:03:56;18.90;70.70
19039;DHT22;9652;49.014;12.052;2022-09-09T04:06:24;18.90;70.70
19039;DHT22;9652;49.014;12.052;2022-09-09T04:08:52;18.90;70.70
19039;DHT22;9652;49.014;12.052;2022-09-09T04:11:21;18.90;70.70
19039;DHT22;9652;49.014;12.052;2022-09-09T04:13:51;18.80;70.70
19039;DHT22;9652;49.014;12.052;2022-09-09T04:16:18;18.80;70.60
19039;DHT22;9652;49.014;12.052;2022-09-09T04:18:46;18.80;70.60
19039;DHT22;9652;49.014;12.052;2022-09-09T04:21:16;18.80;70.70
19039;DHT22;9652;49.014;12.052;2022-09-09T04:23:43;18.80;70.70
19039;DHT22;9652;49.014;12.052;2022-09-09T04:26:10;18.80;70.70
19039;DHT22;9652;49.014;12.052;2022-09-09T04:28:40;18.80;70.70
19039;DHT22;9652;49.014;12.052;2022-09-09T04:31:16;18.80;70.70
19039;DHT22;9652;49.014;12.052;2022-09-09T04:33:46;18.80;70.50
19039;DHT22;9652;49.014;12.052;2022-09-09T04:36:13;18.80;70.50
19039;DHT22;9652;49.014;12.052;2022-09-09T04:38:41;18.80;70.40
19039;DHT22;9652;49.014;12.052;2022-09-09T04:41:10;18.80;70.40
19039;DHT22;9652;49.014;12.052;2022-09-09T04:43:41;18.80;70.40
19039;DHT22;9652;49.014;12.052;2022-09-09T04:46:08;18.80;70.40
19039;DHT22;9652;49.014;12.052;2022-09-09T04:48:36;18.80;70.40
19039;DHT22;9652;49.014;12.052;2022-09-09T04:51:08;18.80;70.50
19039;DHT22;9652;49.014;12.052;2022-09-09T04:53:37;18.80;70.50
19039;DHT22;9652;49.014;12.052;2022-09-09T04:56:07;18.80;70.50
19039;DHT22;9652;49.014;12.052;2022-09-09T04:58:42;18.80;70.50
19039;DHT22;9652;49.014;12.052;2022-09-09T05:01:11;18.80;70.50
19039;DHT22;9652;49.014;12.052;2022-09-09T05:03:42;18.80;70.40
19039;DHT22;9652;49.014;12.052;2022-09-09T05:06:13;18.80;70.40
19039;DHT22;9652;49.014;12.052;2022-09-09T05:08:42;18.80;70.40
19039;DHT22;9652;49.014;12.052;2022-09-09T05:11:15;18.80;70.40
19039;DHT22;9652;49.014;12.052;2022-09-09T05:13:44;18.80;70.50
19039;DHT22;9652;49.014;12.052;2022-09-09T05:16:12;18.80;70.50
19039;DHT22;9652;49.014;12.052;2022-09-09T05:18:40;18.80;70.60
19039;DHT22;9652;49.014;12.052;2022-09-09T05:21:09;18.80;70.60
19039;DHT22;9652;49.014;12.052;2022-09-09T05:23:37;18.80;70.70
19039;DHT22;9652;49.014;12.052;2022-09-09T05:26:06;18.80;70.70
19039;DHT22;9652;49.014;12.052;2022-09-09T05:28:36;18.90;70.80
19039;DHT22;9652;49.014;12.052;2022-09-09T05:31:06;18.90;70.90
19039;DHT22;9652;49.014;12.052;2022-09-09T05:33:36;18.90;70.80
19039;DHT22;9652;49.014;12.052;2022-09-09T05:36:08;18.90;70.90
19039;DHT22;9652;49.014;12.052;2022-09-09T05:38:36;19.00;70.70
19039;DHT22;9652;49.014;12.052;2022-09-09T05:41:04;19.00;70.80
19039;DHT22;9652;49.014;12.052;2022-09-09T05:43:31;19.10;70.90
19039;DHT22;9652;49.014;12.052;2022-09-09T05:46:02;19.10;70.90
19039;DHT22;9652;49.014;12.052;2022-09-09T05:48:33;19.10;71.10
19039;DHT22;9652;49.014;12.052;2022-09-09T05:51:02;19.20;71.00
19039;DHT22;9652;49.014;12.052;2022-09-09T05:53:30;19.30;70.70
19039;DHT22;9652;49.014;12.052;2022-09-09T05:56:01;19.30;70.60
19039;DHT22;9652;49.014;12.052;2022-09-09T05:58:32;19.40;70.60
19039;DHT22;9652;49.014;12.052;2022-09-09T06:01:06;19.40;70.30
19039;DHT22;9652;49.014;12.052;2022-09-09T06:03:36;19.50;70.10
19039;DHT22;9652;49.014;12.052;2022-09-09T06:06:06;19.50;71.00
19039;DHT22;9652;49.014;12.052;2022-09-09T06:08:36;19.60;69.90
19039;DHT22;9652;49.014;12.052;2022-09-09T06:11:07;19.60;69.50
19039;DHT22;9652;49.014;12.052;2022-09-09T06:13:37;19.70;69.20
19039;DHT22;9652;49.014;12.052;2022-09-09T06:16:08;19.70;68.80
19039;DHT22;9652;49.014;12.052;2022-09-09T06:18:39;19.60;68.60
19039;DHT22;9652;49.014;12.052;2022-09-09T06:21:09;19.60;68.70
19039;DHT22;9652;49.014;12.052;2022-09-09T06:23:41;19.60;68.70
19039;DHT22;9652;49.014;12.052;2022-09-09T06:26:11;19.60;68.80
19039;DHT22;9652;49.014;12.052;2022-09-09T06:28:40;19.60;68.80
19039;DHT22;9652;49.014;12.052;2022-09-09T06:31:12;19.60;68.60
19039;DHT22;9652;49.014;12.052;2022-09-09T06:33:41;19.60;68.40
19039;DHT22;9652;49.014;12.052;2022-09-09T06:36:11;19.60;68.60
19039;DHT22;9652;49.014;12.052;2022-09-09T06:38:41;19.70;68.90
19039;DHT22;9652;49.014;12.052;2022-09-09T06:41:11;19.70;69.30
19039;DHT22;9652;49.014;12.052;2022-09-09T06:43:40;19.80;69.40
19039;DHT22;9652;49.014;12.052;2022-09-09T06:46:11;19.90;69.30
19039;DHT22;9652;49.014;12.052;2022-09-09T06:48:40;20.00;69.10
19039;DHT22;9652;49.014;12.052;2022-09-09T06:51:12;20.10;68.80
19039;DHT22;9652;49.014;12.052;2022-09-09T06:53:41;20.10;68.10
19039;DHT22;9652;49.014;12.052;2022-09-09T06:56:19;20.20;67.80
19039;DHT22;9652;49.014;12.052;2022-09-09T06:58:51;20.20;67.20
19039;DHT22;9652;49.014;12.052;2022-09-09T07:01:27;20.20;67.50
19039;DHT22;9652;49.014;12.052;2022-09-09T07:03:59;20.20;67.40
19039;DHT22;9652;49.014;12.052;2022-09-09T07:06:29;20.30;67.50
19039;DHT22;9652;49.014;12.052;2022-09-09T07:09:00;20.30;67.70
19039;DHT22;9652;49.014;12.052;2022-09-09T07:11:32;20.40;67.80
19039;DHT22;9652;49.014;12.052;2022-09-09T07:14:01;20.40;67.90
19039;DHT22;9652;49.014;12.052;2022-09-09T07:16:29;20.50;68.10
19039;DHT22;9652;49.014;12.052;2022-09-09T07:19:00;20.60;68.00
19039;DHT22;9652;49.014;12.052;2022-09-09T07:21:30;20.70;68.00
19039;DHT22;9652;49.014;12.052;2022-09-09T07:23:58;20.80;67.80
19039;DHT22;9652;49.014;12.052;2022-09-09T07:26:28;20.90;68.00
19039;DHT22;9652;49.014;12.052;2022-09-09T07:28:58;21.00;68.10
19039;DHT22;9652;49.014;12.052;2022-09-09T07:31:27;21.10;68.10
19039;DHT22;9652;49.014;12.052;2022-09-09T07:33:58;21.30;67.90
19039;DHT22;9652;49.014;12.052;2022-09-09T07:36:28;21.40;68.00
19039;DHT22;9652;49.014;12.052;2022-09-09T07:38:58;21.60;68.10
19039;DHT22;9652;49.014;12.052;2022-09-09T07:41:29;21.70;67.90
19039;DHT22;9652;49.014;12.052;2022-09-09T07:44:04;21.80;67.50
19039;DHT22;9652;49.014;12.052;2022-09-09T07:46:33;21.80;66.70
19039;DHT22;9652;49.014;12.052;2022-09-09T07:49:03;21.80;66.00
19039;DHT22;9652;49.014;12.052;2022-09-09T07:51:35;21.70;65.40
19039;DHT22;9652;49.014;12.052;2022-09-09T07:54:06;21.80;65.10
19039;DHT22;9652;49.014;12.052;2022-09-09T07:56:37;21.70;64.80
19039;DHT22;9652;49.014;12.052;2022-09-09T07:59:06;21.60;64.60
19039;DHT22;9652;49.014;12.052;2022-09-09T08:01:37;21.50;64.50
19039;DHT22;9652;49.014;12.052;2022-09-09T08:04:10;21.30;64.50
19039;DHT22;9652;49.014;12.052;2022-09-09T08:06:42;21.20;65.00
19039;DHT22;9652;49.014;12.052;2022-09-09T08:09:13;21.10;65.90
19039;DHT22;9652;49.014;12.052;2022-09-09T08:11:42;21.00;65.50
19039;DHT22;9652;49.014;12.052;2022-09-09T08:14:11;20.80;65.80
19039;DHT22;9652;49.014;12.052;2022-09-09T08:16:41;20.70;66.00
19039;DHT22;9652;49.014;12.052;2022-09-09T08:19:12;20.60;66.40
19039;DHT22;9652;49.014;12.052;2022-09-09T08:21:42;20.50;66.80
19039;DHT22;9652;49.014;12.052;2022-09-09T08:24:12;20.50;67.00
19039;DHT22;9652;49.014;12.052;2022-09-09T08:26:42;20.40;67.10
19039;DHT22;9652;49.014;12.052;2022-09-09T08:29:13;20.40;67.60
19039;DHT22;9652;49.014;12.052;2022-09-09T08:31:43;20.30;67.80
19039;DHT22;9652;49.014;12.052;2022-09-09T08:34:15;20.20;68.20
19039;DHT22;9652;49.014;12.052;2022-09-09T08:36:44;20.10;68.10
19039;DHT22;9652;49.014;12.052;2022-09-09T08:39:14;20.10;68.60
19039;DHT22;9652;49.014;12.052;2022-09-09T08:42:00;20.00;68.90
19039;DHT22;9652;49.014;12.052;2022-09-09T08:44:59;19.90;69.80
19039;DHT22;9652;49.014;12.052;2022-09-09T08:47:42;19.90;70.00
19039;DHT22;9652;49.014;12.052;2022-09-09T08:50:26;19.90;70.30
19039;DHT22;9652;49.014;12.052;2022-09-09T08:53:02;20.00;71.00
19039;DHT22;9652;49.014;12.052;2022-09-09T08:55:41;20.00;71.40
19039;DHT22;9652;49.014;12.052;2022-09-09T08:58:14;20.10;72.20
19039;DHT22;9652;49.014;12.052;2022-09-09T09:00:55;20.20;72.30
19039;DHT22;9652;49.014;12.052;2022-09-09T09:03:36;20.40;72.70
19039;DHT22;9652;49.014;12.052;2022-09-09T09:06:25;20.50;72.40
19039;DHT22;9652;49.014;12.052;2022-09-09T09:09:07;20.70;72.20
19039;DHT22;9652;49.014;12.052;2022-09-09T09:11:37;20.90;72.30
19039;DHT22;9652;49.014;12.052;2022-09-09T09:14:11;21.00;72.00
19039;DHT22;9652;49.014;12.052;2022-09-09T09:16:50;21.20;71.00
19039;DHT22;9652;49.014;12.052;2022-09-09T09:19:21;21.30;70.30
19039;DHT22;9652;49.014;12.052;2022-09-09T09:21:57;21.50;70.60
19039;DHT22;9652;49.014;12.052;2022-09-09T09:24:36;21.60;70.10
19039;DHT22;9652;49.014;12.052;2022-09-09T09:27:13;21.80;69.70
19039;DHT22;9652;49.014;12.052;2022-09-09T09:29:48;21.90;69.40
19039;DHT22;9652;49.014;12.052;2022-09-09T09:32:19;22.00;69.00
19039;DHT22;9652;49.014;12.052;2022-09-09T09:34:50;22.10;68.30
19039;DHT22;9652;49.014;12.052;2022-09-09T09:37:27;22.20;67.70
19039;DHT22;9652;49.014;12.052;2022-09-09T09:40:08;22.20;67.40
19039;DHT22;9652;49.014;12.052;2022-09-09T09:42:38;22.30;67.30
19039;DHT22;9652;49.014;12.052;2022-09-09T09:45:20;22.30;67.50
19039;DHT22;9652;49.014;12.052;2022-09-09T09:48:00;22.40;67.40
19039;DHT22;9652;49.014;12.052;2022-09-09T09:50:31;22.50;67.20
19039;DHT22;9652;49.014;12.052;2022-09-09T09:53:03;22.60;67.30
19039;DHT22;9652;49.014;12.052;2022-09-09T09:55:35;22.70;67.10
19039;DHT22;9652;49.014;12.052;2022-09-09T09:58:05;22.90;67.20
19039;DHT22;9652;49.014;12.052;2022-09-09T10:00:34;23.00;67.10
19039;DHT22;9652;49.014;12.052;2022-09-09T10:03:23;23.20;67.30
19039;DHT22;9652;49.014;12.052;2022-09-09T10:05:53;23.30;65.90
19039;DHT22;9652;49.014;12.052;2022-09-09T10:08:24;23.40;66.30
19039;DHT22;9652;49.014;12.052;2022-09-09T10:11:05;23.60;66.00
19039;DHT22;9652;49.014;12.052;2022-09-09T10:13:51;23.90;64.90
19039;DHT22;9652;49.014;12.052;2022-09-09T10:16:48;24.00;65.40
19039;DHT22;9652;49.014;12.052;2022-09-09T10:19:30;24.10;64.20
19039;DHT22;9652;49.014;12.052;2022-09-09T10:22:05;24.30;64.30
19039;DHT22;9652;49.014;12.052;2022-09-09T10:28:29;24.50;62.30
19039;DHT22;9652;49.014;12.052;2022-09-09T10:31:16;24.60;61.50
19039;DHT22;9652;49.014;12.052;2022-09-09T10:33:51;24.70;61.30
19039;DHT22;9652;49.014;12.052;2022-09-09T10:36:25;24.70;62.00
19039;DHT22;9652;49.014;12.052;2022-09-09T10:38:58;24.80;62.00
19039;DHT22;9652;49.014;12.052;2022-09-09T10:41:42;24.90;61.50
19039;DHT22;9652;49.014;12.052;2022-09-09T10:44:28;24.90;60.60
19039;DHT22;9652;49.014;12.052;2022-09-09T10:47:21;25.00;60.90
19039;DHT22;9652;49.014;12.052;2022-09-09T10:50:18;25.10;60.10
19039;DHT22;9652;49.014;12.052;2022-09-09T10:53:13;25.20;60.40
19039;DHT22;9652;49.014;12.052;2022-09-09T10:55:51;25.30;60.50
19039;DHT22;9652;49.014;12.052;2022-09-09T10:58:28;25.30;60.40
19039;DHT22;9652;49.014;12.052;2022-09-09T11:01:06;25.40;60.80
19039;DHT22;9652;49.014;12.052;2022-09-09T11:03:40;25.40;60.30
19039;DHT22;9652;49.014;12.052;2022-09-09T11:06:13;25.50;60.30
19039;DHT22;9652;49.014;12.052;2022-09-09T11:08:43;25.50;59.50
19039;DHT22;9652;49.014;12.052;2022-09-09T11:11:15;25.50;59.50
19039;DHT22;9652;49.014;12.052;2022-09-09T11:13:52;25.40;58.80
19039;DHT22;9652;49.014;12.052;2022-09-09T11:16:28;25.40;58.30
19039;DHT22;9652;49.014;12.052;2022-09-09T11:19:04;25.30;58.20
19039;DHT22;9652;49.014;12.052;2022-09-09T11:21:43;25.20;58.00
19039;DHT22;9652;49.014;12.052;2022-09-09T11:24:18;25.10;57.80
19039;DHT22;9652;49.014;12.052;2022-09-09T11:26:52;25.10;58.10
19039;DHT22;9652;49.014;12.052;2022-09-09T11:29:52;25.00;58.20
19039;DHT22;9652;49.014;12.052;2022-09-09T11:33:08;24.90;57.80
19039;DHT22;9652;49.014;12.052;2022-09-09T11:36:02;24.90;58.20
19039;DHT22;9652;49.014;12.052;2022-09-09T11:38:45;24.80;58.10
19039;DHT22;9652;49.014;12.052;2022-09-09T11:41:15;24.90;58.30
19039;DHT22;9652;49.014;12.052;2022-09-09T11:43:44;24.90;58.80
19039;DHT22;9652;49.014;12.052;2022-09-09T11:46:15;24.90;59.10
19039;DHT22;9652;49.014;12.052;2022-09-09T11:48:45;24.90;59.30
19039;DHT22;9652;49.014;12.052;2022-09-09T11:51:26;25.00;59.60
19039;DHT22;9652;49.014;12.052;2022-09-09T11:53:57;25.10;59.50
19039;DHT22;9652;49.014;12.052;2022-09-09T11:56:28;25.30;59.50
19039;DHT22;9652;49.014;12.052;2022-09-09T11:59:04;25.40;59.40
19039;DHT22;9652;49.014;12.052;2022-09-09T12:01:41;25.60;59.40
19039;DHT22;9652;49.014;12.052;2022-09-09T12:04:27;25.70;58.40
19039;DHT22;9652;49.014;12.052;2022-09-09T12:07:00;25.90;58.30
19039;DHT22;9652;49.014;12.052;2022-09-09T12:09:43;26.00;58.10
19039;DHT22;9652;49.014;12.052;2022-09-09T12:12:30;26.10;57.10
19039;DHT22;9652;49.014;12.052;2022-09-09T12:15:03;26.20;56.80
19039;DHT22;9652;49.014;12.052;2022-09-09T12:17:49;26.30;57.40
19039;DHT22;9652;49.014;12.052;2022-09-09T12:20:19;26.30;57.30
19039;DHT22;9652;49.014;12.052;2022-09-09T12:22:58;26.30;57.30
19039;DHT22;9652;49.014;12.052;2022-09-09T12:25:48;26.30;56.90
19039;DHT22;9652;49.014;12.052;2022-09-09T12:28:31;26.30;57.00
19039;DHT22;9652;49.014;12.052;2022-09-09T12:31:14;26.40;57.30
19039;DHT22;9652;49.014;12.052;2022-09-09T12:33:48;26.40;57.60
19039;DHT22;9652;49.014;12.052;2022-09-09T12:36:17;26.50;57.30
19039;DHT22;9652;49.014;12.052;2022-09-09T12:38:48;26.60;57.10
19039;DHT22;9652;49.014;12.052;2022-09-09T12:41:21;26.60;57.20
19039;DHT22;9652;49.014;12.052;2022-09-09T12:43:50;26.60;56.30
19039;DHT22;9652;49.014;12.052;2022-09-09T12:46:27;26.60;56.50
19039;DHT22;9652;49.014;12.052;2022-09-09T12:49:03;26.60;56.10
19039;DHT22;9652;49.014;12.052;2022-09-09T12:51:33;26.60;56.20
19039;DHT22;9652;49.014;12.052;2022-09-09T12:54:00;26.50;55.90
19039;DHT22;9652;49.014;12.052;2022-09-09T12:56:30;26.40;55.90
19039;DHT22;9652;49.014;12.052;2022-09-09T12:59:01;26.30;55.80
19039;DHT22;9652;49.014;12.052;2022-09-09T13:01:30;26.10;55.70
19039;DHT22;9652;49.014;12.052;2022-09-09T13:03:59;26.00;55.80
19039;DHT22;9652;49.014;12.052;2022-09-09T13:06:30;25.70;55.80
19039;DHT22;9652;49.014;12.052;2022-09-09T13:09:00;25.60;56.10
19039;DHT22;9652;49.014;12.052;2022-09-09T13:11:30;25.50;56.30
19039;DHT22;9652;49.014;12.052;2022-09-09T13:14:04;25.30;56.30
19039;DHT22;9652;49.014;12.052;2022-09-09T13:16:34;25.10;56.40
19039;DHT22;9652;49.014;12.052;2022-09-09T13:19:08;25.00;56.60
19039;DHT22;9652;49.014;12.052;2022-09-09T13:21:42;25.00;56.80
19039;DHT22;9652;49.014;12.052;2022-09-09T13:24:26;25.00;57.60
19039;DHT22;9652;49.014;12.052;2022-09-09T13:26:57;25.10;57.20
19039;DHT22;9652;49.014;12.052;2022-09-09T13:29:28;25.20;58.10
19039;DHT22;9652;49.014;12.052;2022-09-09T13:32:04;25.40;57.90
19039;DHT22;9652;49.014;12.052;2022-09-09T13:34:34;25.60;56.60
19039;DHT22;9652;49.014;12.052;2022-09-09T13:37:05;25.60;56.50
19039;DHT22;9652;49.014;12.052;2022-09-09T13:39:34;25.80;56.10
19039;DHT22;9652;49.014;12.052;2022-09-09T13:42:04;26.00;55.90
19039;DHT22;9652;49.014;12.052;2022-09-09T13:44:36;26.00;55.50
19039;DHT22;9652;49.014;12.052;2022-09-09T13:47:19;26.10;55.10
19039;DHT22;9652;49.014;12.052;2022-09-09T13:49:47;26.10;54.30
19039;DHT22;9652;49.014;12.052;2022-09-09T13:52:17;26.10;54.70
19039;DHT22;9652;49.014;12.052;2022-09-09T13:54:47;26.00;54.80
19039;DHT22;9652;49.014;12.052;2022-09-09T13:57:17;26.10;55.30
19039;DHT22;9652;49.014;12.052;2022-09-09T13:59:46;26.20;55.40
19039;DHT22;9652;49.014;12.052;2022-09-09T14:02:14;26.20;55.20
19039;DHT22;9652;49.014;12.052;2022-09-09T14:04:43;26.30;55.10
19039;DHT22;9652;49.014;12.052;2022-09-09T14:07:11;26.40;55.30
19039;DHT22;9652;49.014;12.052;2022-09-09T14:09:41;26.50;54.90
19039;DHT22;9652;49.014;12.052;2022-09-09T14:12:10;26.60;54.70
19039;DHT22;9652;49.014;12.052;2022-09-09T14:14:38;26.70;54.90
19039;DHT22;9652;49.014;12.052;2022-09-09T14:17:05;26.90;55.30
19039;DHT22;9652;49.014;12.052;2022-09-09T14:19:32;27.10;55.60
19039;DHT22;9652;49.014;12.052;2022-09-09T14:21:59;27.30;55.70
19039;DHT22;9652;49.014;12.052;2022-09-09T14:24:26;27.60;56.30
19039;DHT22;9652;49.014;12.052;2022-09-09T14:26:56;28.00;55.60
19039;DHT22;9652;49.014;12.052;2022-09-09T14:29:23;28.20;54.10
19039;DHT22;9652;49.014;12.052;2022-09-09T14:31:52;28.50;53.30
19039;DHT22;9652;49.014;12.052;2022-09-09T14:34:19;28.60;53.20
19039;DHT22;9652;49.014;12.052;2022-09-09T14:36:46;28.70;53.10
19039;DHT22;9652;49.014;12.052;2022-09-09T14:39:13;28.90;52.80
19039;DHT22;9652;49.014;12.052;2022-09-09T14:41:40;29.00;51.80
19039;DHT22;9652;49.014;12.052;2022-09-09T14:44:08;29.10;51.50
19039;DHT22;9652;49.014;12.052;2022-09-09T14:46:35;29.10;51.00
19039;DHT22;9652;49.014;12.052;2022-09-09T14:49:02;29.10;50.50
19039;DHT22;9652;49.014;12.052;2022-09-09T14:51:30;29.10;50.00
19039;DHT22;9652;49.014;12.052;2022-09-09T14:53:58;29.00;50.40
19039;DHT22;9652;49.014;12.052;2022-09-09T14:56:29;28.80;49.70
19039;DHT22;9652;49.014;12.052;2022-09-09T14:58:58;28.70;49.80
19039;DHT22;9652;49.014;12.052;2022-09-09T15:01:29;28.60;49.60
19039;DHT22;9652;49.014;12.052;2022-09-09T15:03:58;28.40;49.10
19039;DHT22;9652;49.014;12.052;2022-09-09T15:06:28;28.30;49.10
19039;DHT22;9652;49.014;12.052;2022-09-09T15:08:57;28.10;49.20
19039;DHT22;9652;49.014;12.052;2022-09-09T15:11:26;27.90;49.60
19039;DHT22;9652;49.014;12.052;2022-09-09T15:13:56;27.70;49.90
19039;DHT22;9652;49.014;12.052;2022-09-09T15:16:25;27.60;49.90
19039;DHT22;9652;49.014;12.052;2022-09-09T15:18:56;27.40;49.80
19039;DHT22;9652;49.014;12.052;2022-09-09T15:21:26;27.30;49.70
19039;DHT22;9652;49.014;12.052;2022-09-09T15:23:55;27.20;49.60
19039;DHT22;9652;49.014;12.052;2022-09-09T15:26:23;27.00;49.90
19039;DHT22;9652;49.014;12.052;2022-09-09T15:28:51;26.80;50.00
19039;DHT22;9652;49.014;12.052;2022-09-09T15:31:20;26.60;50.20
19039;DHT22;9652;49.014;12.052;2022-09-09T15:33:51;26.40;50.30
19039;DHT22;9652;49.014;12.052;2022-09-09T15:36:27;26.30;50.50
19039;DHT22;9652;49.014;12.052;2022-09-09T15:38:55;26.20;50.70
19039;DHT22;9652;49.014;12.052;2022-09-09T15:41:23;26.00;50.80
19039;DHT22;9652;49.014;12.052;2022-09-09T15:43:52;25.90;51.00
19039;DHT22;9652;49.014;12.052;2022-09-09T15:46:25;25.80;51.90
19039;DHT22;9652;49.014;12.052;2022-09-09T15:49:04;25.70;51.40
19039;DHT22;9652;49.014;12.052;2022-09-09T15:51:32;25.70;51.60
19039;DHT22;9652;49.014;12.052;2022-09-09T15:54:00;25.60;51.80
19039;DHT22;9652;49.014;12.052;2022-09-09T15:56:28;25.60;52.00
19039;DHT22;9652;49.014;12.052;2022-09-09T15:58:57;25.60;51.90
19039;DHT22;9652;49.014;12.052;2022-09-09T16:01:26;25.70;51.90
19039;DHT22;9652;49.014;12.052;2022-09-09T16:03:53;25.60;51.90
19039;DHT22;9652;49.014;12.052;2022-09-09T16:06:23;25.60;51.90
19039;DHT22;9652;49.014;12.052;2022-09-09T16:08:55;25.60;51.70
19039;DHT22;9652;49.014;12.052;2022-09-09T16:11:25;25.60;51.70
19039;DHT22;9652;49.014;12.052;2022-09-09T16:13:54;25.50;51.50
19039;DHT22;9652;49.014;12.052;2022-09-09T16:16:24;25.50;51.50